Time;durP1;ratioP1;P1;durP2;ratioP2;P2;SDS_P1;SDS_P2;PMS_P1;PMS_P2;Temp;Humidity;BMP_temperature;BMP_pressure;BME280_temperature;BME280_humidity;BME280_pressure;Samples;Min_cycle;Max_cycle;Signal;HPM_P1;HPM_P2
2022/03/08 00:00:50;;;;;;;23.13;10.90;;;;;;;5.43;50.05;98814.38;5060564;28;20049;-74
2022/03/08 00:03:18;;;;;;;17.57;10.97;;;;;;;5.33;50.13;98790.72;5038046;28;20474;-75
2022/03/08 00:05:44;;;;;;;20.37;11.57;;;;;;;5.43;49.87;98820.44;5077085;28;20075;-75
2022/03/08 00:08:10;;;;;;;26.40;12.23;;;;;;;5.30;49.40;98825.22;5045809;28;20101;-75
2022/03/08 00:10:36;;;;;;;22.03;11.97;;;;;;;5.27;49.75;98829.94;5028451;28;20085;-76
2022/03/08 00:13:02;;;;;;;22.47;12.13;;;;;;;5.26;49.45;98823.84;5044489;28;20058;-75
2022/03/08 00:15:28;;;;;;;24.33;12.50;;;;;;;5.21;49.43;98832.16;5045932;28;20046;-75
2022/03/08 00:17:55;;;;;;;21.83;12.30;;;;;;;5.35;49.55;98833.50;5078665;28;20036;-74
2022/03/08 00:20:21;;;;;;;23.17;12.10;;;;;;;5.23;49.33;98834.66;5077357;28;20571;-76
2022/03/08 00:22:47;;;;;;;25.53;11.17;;;;;;;4.94;49.23;98797.09;5079427;28;20130;-75
2022/03/08 00:25:14;;;;;;;24.03;11.33;;;;;;;5.12;49.43;98813.78;5078731;28;20127;-75
2022/03/08 00:27:46;;;;;;;25.90;11.37;;;;;;;5.29;49.17;98831.44;5079647;28;20043;-75
2022/03/08 00:30:15;;;;;;;21.13;11.30;;;;;;;5.34;48.94;98838.91;5046780;28;20119;-75
2022/03/08 00:32:42;;;;;;;21.83;10.75;;;;;;;5.01;49.21;98840.28;5062739;28;20103;-74
2022/03/08 00:35:09;;;;;;;17.80;10.13;;;;;;;5.04;49.18;98847.91;5062393;28;20526;-74
2022/03/08 00:37:38;;;;;;;22.37;10.90;;;;;;;5.19;49.10;98849.09;5057997;28;20127;-74
2022/03/08 00:40:09;;;;;;;21.63;10.07;;;;;;;5.31;49.04;98842.66;5054810;28;20036;-74
2022/03/08 00:42:36;;;;;;;14.43;9.43;;;;;;;4.87;49.05;98817.84;5038209;28;20105;-75
2022/03/08 00:45:03;;;;;;;16.70;9.57;;;;;;;5.16;49.13;98844.13;5054429;28;20547;-74
2022/03/08 00:47:29;;;;;;;18.50;9.23;;;;;;;5.02;49.18;98849.81;5070414;28;20052;-75
2022/03/08 00:49:55;;;;;;;16.50;9.33;;;;;;;4.93;48.93;98843.63;5070868;28;20048;-75
2022/03/08 00:52:21;;;;;;;18.17;9.17;;;;;;;4.96;49.26;98851.25;5037490;28;20036;-75
2022/03/08 00:54:47;;;;;;;12.83;7.50;;;;;;;4.90;49.11;98849.19;5037670;28;20045;-74
2022/03/08 00:57:14;;;;;;;17.87;8.00;;;;;;;4.83;49.13;98844.59;5054375;28;20039;-75
2022/03/08 00:59:40;;;;;;;12.17;8.00;;;;;;;4.78;49.44;98845.03;5071206;28;20040;-74
2022/03/08 01:02:06;;;;;;;16.77;8.60;;;;;;;4.76;49.43;98843.50;5054834;28;20044;-73
2022/03/08 01:04:32;;;;;;;14.57;7.70;;;;;;;4.79;49.14;98851.97;5054432;28;20037;-73
2022/03/08 01:06:57;;;;;;;13.80;7.80;;;;;;;4.78;49.07;98854.72;5054206;28;20049;-74
2022/03/08 01:09:23;;;;;;;14.67;7.70;;;;;;;4.79;49.62;98849.34;5053793;28;20135;-73
2022/03/08 01:11:50;;;;;;;10.30;6.87;;;;;;;4.91;49.38;98855.25;5070435;28;20061;-73
2022/03/08 01:14:16;;;;;;;12.67;7.13;;;;;;;4.66;49.67;98861.94;5070376;28;20496;-74
2022/03/08 01:16:42;;;;;;;13.33;7.10;;;;;;;4.69;49.47;98860.84;5070614;28;20040;-74
2022/03/08 01:19:08;;;;;;;11.03;6.80;;;;;;;4.74;49.75;98861.22;5071633;28;20488;-75
2022/03/08 01:21:35;;;;;;;10.97;7.03;;;;;;;4.90;49.63;98869.38;5037783;28;20519;-75
2022/03/08 01:24:01;;;;;;;10.70;6.60;;;;;;;4.73;49.66;98856.94;5037103;28;20553;-74
2022/03/08 01:26:28;;;;;;;9.17;6.17;;;;;;;4.76;49.62;98862.75;5070229;28;20041;-75
2022/03/08 01:28:56;;;;;;;9.03;5.20;;;;;;;4.76;49.66;98861.94;5070004;28;20047;-74
2022/03/08 01:31:22;;;;;;;7.97;5.17;;;;;;;4.79;49.56;98874.78;5069977;28;20048;-74
2022/03/08 01:33:50;;;;;;;7.93;4.77;;;;;;;4.70;49.58;98871.22;5053775;28;20070;-74
2022/03/08 01:36:17;;;;;;;8.27;4.70;;;;;;;4.64;49.60;98868.31;5053242;28;20567;-73
2022/03/08 01:38:43;;;;;;;13.67;4.63;;;;;;;4.61;49.52;98868.59;5036741;28;20130;-73
2022/03/08 01:41:09;;;;;;;7.37;4.80;;;;;;;4.53;49.53;98871.06;5036776;28;20488;-74
2022/03/08 01:43:35;;;;;;;10.57;5.30;;;;;;;4.59;49.74;98875.78;5036638;28;20041;-73
2022/03/08 01:46:00;;;;;;;11.13;4.90;;;;;;;4.49;49.41;98865.25;5052852;28;20040;-73
2022/03/08 01:48:27;;;;;;;10.57;5.43;;;;;;;4.51;49.75;98865.13;5037098;28;20131;-73
2022/03/08 01:50:53;;;;;;;9.97;5.97;;;;;;;4.55;49.56;98874.41;5070003;28;20109;-73
2022/03/08 01:53:19;;;;;;;10.50;6.33;;;;;;;4.48;49.59;98863.59;5053289;28;20508;-72
2022/03/08 01:55:45;;;;;;;8.70;6.10;;;;;;;4.51;49.33;98888.78;5020248;28;20047;-73
2022/03/08 01:58:11;;;;;;;9.90;6.47;;;;;;;4.49;49.59;98874.97;5020535;28;20040;-73
2022/03/08 02:00:37;;;;;;;15.27;6.50;;;;;;;4.57;49.46;98890.84;5037685;28;20400;-73
2022/03/08 02:03:03;;;;;;;12.33;6.70;;;;;;;4.62;49.08;98896.53;5052730;28;20044;-73
2022/03/08 02:05:29;;;;;;;11.37;6.53;;;;;;;4.55;49.28;98883.09;5069542;28;20411;-73
2022/03/08 02:07:55;;;;;;;9.67;6.37;;;;;;;4.54;49.27;98897.22;5019892;28;20055;-72
2022/03/08 02:10:20;;;;;;;9.90;6.10;;;;;;;4.35;48.95;98880.63;5036069;28;20036;-72
2022/03/08 02:12:46;;;;;;;12.43;6.30;;;;;;;4.49;48.77;98907.31;5036006;28;20139;-73
2022/03/08 02:15:19;;;;;;;11.10;6.27;;;;;;;4.68;48.51;98911.75;5069184;28;20040;-73
2022/03/08 02:17:45;;;;;;;10.43;6.10;;;;;;;4.59;48.57;98905.53;5069558;28;20044;-73
2022/03/08 02:20:12;;;;;;;10.73;6.00;;;;;;;4.42;48.04;98876.47;5052811;28;20044;-75
2022/03/08 02:22:46;;;;;;;10.20;6.17;;;;;;;4.79;47.79;98922.97;5036180;28;20539;-73
2022/03/08 02:25:13;;;;;;;13.70;6.30;;;;;;;4.61;48.07;98918.56;5068966;28;20404;-74
2022/03/08 02:27:45;;;;;;;7.87;5.57;;;;;;;4.65;47.91;98922.56;5052853;28;20508;-73
2022/03/08 02:30:12;;;;;;;11.70;6.67;;;;;;;4.44;47.53;98917.44;5053112;28;20052;-75
2022/03/08 02:32:38;;;;;;;9.30;5.97;;;;;;;4.39;47.61;98929.31;5069710;28;20044;-73
2022/03/08 02:35:14;;;;;;;11.33;6.03;;;;;;;4.50;47.76;98926.56;5069498;28;20110;-73
2022/03/08 02:37:47;;;;;;;11.87;6.17;;;;;;;4.39;47.68;98931.94;5036245;28;20041;-73
2022/03/08 02:40:15;;;;;;;10.30;5.67;;;;;;;4.41;47.42;98932.66;5036039;28;20457;-73
2022/03/08 02:42:41;;;;;;;10.20;5.57;;;;;;;4.09;47.30;98911.03;5069453;28;20106;-73
2022/03/08 02:45:08;;;;;;;11.87;6.53;;;;;;;4.24;47.54;98933.31;5070095;28;20068;-73
2022/03/08 02:47:34;;;;;;;13.10;6.23;;;;;;;4.23;47.43;98937.72;5052719;28;20062;-73
2022/03/08 02:50:00;;;;;;;13.47;6.83;;;;;;;4.16;47.68;98943.66;5019371;28;20098;-73
2022/03/08 02:52:26;;;;;;;12.27;6.37;;;;;;;4.24;47.26;98938.56;5069243;28;20086;-74
2022/03/08 02:54:52;;;;;;;11.73;6.33;;;;;;;4.19;47.22;98938.97;5036076;28;20045;-73
2022/03/08 02:57:17;;;;;;;8.50;5.93;;;;;;;4.21;47.17;98946.72;5069219;28;20048;-73
2022/03/08 02:59:43;;;;;;;10.40;5.87;;;;;;;4.12;47.09;98950.16;5036326;28;20527;-75
2022/03/08 03:02:09;;;;;;;12.53;5.93;;;;;;;3.95;47.37;98927.97;5035904;28;20048;-73
2022/03/08 03:04:35;;;;;;;10.83;6.23;;;;;;;4.09;47.15;98955.69;5068936;28;20385;-73
2022/03/08 03:07:07;;;;;;;11.70;6.20;;;;;;;4.09;47.53;98971.44;5051263;28;20060;-73
2022/03/08 03:09:33;;;;;;;11.70;6.47;;;;;;;4.00;47.16;98975.69;5052937;28;20045;-73
2022/03/08 03:11:59;;;;;;;11.97;5.67;;;;;;;3.80;47.51;98944.25;5022936;28;20147;-73
2022/03/08 03:14:24;;;;;;;9.80;5.40;;;;;;;3.91;47.67;98975.66;5056015;28;20063;-74
2022/03/08 03:16:50;;;;;;;10.07;6.00;;;;;;;3.75;47.56;98954.31;5056026;28;20048;-73
2022/03/08 03:19:16;;;;;;;18.83;6.47;;;;;;;3.87;47.43;98990.03;5072675;28;20044;-74
2022/03/08 03:21:44;;;;;;;15.47;5.87;;;;;;;3.85;47.12;98976.19;5056675;28;20044;-72
2022/03/08 03:24:10;;;;;;;13.80;5.87;;;;;;;3.84;47.54;99000.78;5039613;28;20044;-73
2022/03/08 03:26:36;;;;;;;8.30;5.33;;;;;;;3.81;47.14;98982.66;5055804;28;20051;-73
2022/03/08 03:29:02;;;;;;;12.10;5.60;;;;;;;3.89;46.98;98988.91;5055986;28;20068;-73
2022/03/08 03:31:27;;;;;;;10.97;5.50;;;;;;;3.79;47.35;98997.72;5055524;28;20049;-73
2022/03/08 03:33:53;;;;;;;9.10;4.93;;;;;;;3.80;46.89;99002.03;5039055;28;20139;-73
2022/03/08 03:36:19;;;;;;;9.40;5.63;;;;;;;3.72;47.15;98999.22;5055356;28;20497;-73
2022/03/08 03:38:45;;;;;;;10.43;5.37;;;;;;;3.79;47.06;99009.06;5055873;28;20040;-73
2022/03/08 03:41:11;;;;;;;7.67;4.80;;;;;;;3.73;46.66;99011.38;5039092;28;20041;-73
2022/03/08 03:43:37;;;;;;;9.23;5.40;;;;;;;3.76;46.79;99011.97;5072036;28;20040;-73
2022/03/08 03:46:05;;;;;;;8.50;5.10;;;;;;;3.73;47.03;99016.63;5072133;28;20055;-73
2022/03/08 03:48:30;;;;;;;10.90;5.40;;;;;;;3.67;46.69;99012.75;5055590;28;20120;-72
2022/03/08 03:50:56;;;;;;;8.93;5.23;;;;;;;3.60;46.57;99001.06;5055246;28;20087;-72
2022/03/08 03:53:22;;;;;;;10.50;5.10;;;;;;;3.64;46.43;99026.13;5054816;28;20056;-74
2022/03/08 03:55:48;;;;;;;12.90;5.37;;;;;;;3.61;46.20;99023.75;5055019;28;20048;-73
2022/03/08 03:58:13;;;;;;;11.30;4.83;;;;;;;3.51;46.23;99017.59;5038922;28;20500;-73
2022/03/08 04:00:39;;;;;;;9.07;5.13;;;;;;;3.50;46.35;99008.06;5038943;28;20045;-74
2022/03/08 04:03:05;;;;;;;8.53;4.97;;;;;;;3.52;45.84;99028.94;5038668;28;20451;-74
2022/03/08 04:05:31;;;;;;;9.73;5.30;;;;;;;3.45;46.21;99042.59;5055033;28;20048;-73
2022/03/08 04:07:57;;;;;;;9.60;5.47;;;;;;;3.50;46.15;99042.19;5055141;28;20138;-72
2022/03/08 04:10:23;;;;;;;7.43;4.77;;;;;;;3.59;46.31;99046.69;5022011;28;20036;-73
2022/03/08 04:12:48;;;;;;;7.63;4.70;;;;;;;3.49;46.00;99038.75;5021530;28;20143;-74
2022/03/08 04:15:14;;;;;;;10.20;4.70;;;;;;;3.52;45.92;99039.44;5073077;28;20112;-73
2022/03/08 04:17:40;;;;;;;8.07;4.70;;;;;;;3.73;45.81;99040.25;5054799;28;20105;-73
2022/03/08 04:20:08;;;;;;;9.23;4.70;;;;;;;3.69;45.88;99046.75;5054673;28;20045;-73
2022/03/08 04:22:34;;;;;;;10.20;4.63;;;;;;;3.22;46.00;99012.19;5071729;28;20097;-73
2022/03/08 04:25:01;;;;;;;8.50;4.73;;;;;;;3.36;46.16;99043.34;5038327;28;20040;-74
2022/03/08 04:27:27;;;;;;;10.00;4.70;;;;;;;3.45;46.40;99055.72;5054389;28;20067;-73
2022/03/08 04:29:53;;;;;;;8.07;4.83;;;;;;;3.42;46.58;99042.00;5037939;28;20037;-74
2022/03/08 04:32:18;;;;;;;10.43;5.30;;;;;;;3.40;46.56;99051.78;5021434;28;20048;-73
2022/03/08 04:34:44;;;;;;;10.27;4.87;;;;;;;3.45;46.35;99055.72;5038194;28;20048;-75
2022/03/08 04:37:10;;;;;;;9.17;5.33;;;;;;;3.47;46.60;99061.66;5054695;28;20051;-75
2022/03/08 04:39:36;;;;;;;9.33;5.07;;;;;;;3.49;46.78;99057.09;5071356;28;20048;-68
2022/03/08 04:42:02;;;;;;;10.67;5.50;;;;;;;3.56;46.89;99062.69;5071098;28;20135;-68
2022/03/08 04:44:27;;;;;;;8.40;5.00;;;;;;;3.49;46.68;99072.84;5054306;28;20443;-69
2022/03/08 04:46:53;;;;;;;9.33;5.00;;;;;;;3.36;47.06;99045.97;5054148;28;20048;-70
2022/03/08 04:49:19;;;;;;;7.87;5.00;;;;;;;3.30;47.40;99041.25;5070837;28;20043;-69
2022/03/08 04:51:45;;;;;;;12.30;5.90;;;;;;;3.54;47.15;99079.53;5021333;28;20065;-69
2022/03/08 04:54:11;;;;;;;10.43;5.10;;;;;;;3.54;47.26;99088.22;5070645;28;20127;-69
2022/03/08 04:56:37;;;;;;;12.67;6.03;;;;;;;3.58;46.83;99097.53;5053710;28;20158;-69
2022/03/08 04:59:03;;;;;;;8.60;5.13;;;;;;;3.77;47.07;99094.22;5070223;28;20449;-67
2022/03/08 05:01:29;;;;;;;15.03;5.87;;;;;;;3.67;47.11;99086.25;5069806;28;20063;-68
2022/03/08 05:03:55;;;;;;;11.80;5.70;;;;;;;3.70;46.94;99090.41;5053465;28;20040;-68
2022/03/08 05:06:21;;;;;;;10.80;5.60;;;;;;;3.80;46.91;99101.81;5070270;28;20048;-69
2022/03/08 05:08:47;;;;;;;9.43;5.07;;;;;;;3.90;47.06;99105.34;5071648;28;20044;-68
2022/03/08 05:11:14;;;;;;;11.43;5.90;;;;;;;4.01;47.05;99100.84;5053702;28;20056;-68
2022/03/08 05:13:40;;;;;;;11.47;5.63;;;;;;;3.77;46.59;99078.44;5036621;28;20433;-68
2022/03/08 05:16:06;;;;;;;9.07;5.33;;;;;;;3.88;46.78;99099.38;5052636;28;20512;-69
2022/03/08 05:18:31;;;;;;;9.37;5.43;;;;;;;3.94;46.65;99106.72;5069883;28;20079;-68
2022/03/08 05:20:57;;;;;;;11.47;4.67;;;;;;;3.91;46.27;99115.72;5053183;28;20048;-68
2022/03/08 05:23:23;;;;;;;8.33;5.10;;;;;;;3.93;46.43;99129.56;5070006;28;20477;-69
2022/03/08 05:25:49;;;;;;;11.67;5.93;;;;;;;3.98;46.16;99124.75;5069872;28;20041;-68
2022/03/08 05:28:15;;;;;;;11.57;5.93;;;;;;;4.04;46.68;99129.50;5036454;28;20504;-68
2022/03/08 05:30:41;;;;;;;10.63;4.97;;;;;;;4.06;45.91;99129.38;5069713;28;20415;-68
2022/03/08 05:33:09;;;;;;;11.77;6.17;;;;;;;4.40;46.08;99136.00;5052734;28;20044;-68
2022/03/08 05:35:35;;;;;;;10.57;5.60;;;;;;;4.18;45.60;99139.63;5053087;28;20385;-68
2022/03/08 05:38:01;;;;;;;11.13;5.90;;;;;;;4.16;45.44;99143.38;5069578;28;20047;-68
2022/03/08 05:40:27;;;;;;;9.30;5.27;;;;;;;4.15;45.39;99146.97;5052802;28;20092;-68
2022/03/08 05:42:53;;;;;;;9.70;5.13;;;;;;;4.06;44.66;99150.38;5053144;28;20044;-69
2022/03/08 05:45:19;;;;;;;9.43;5.47;;;;;;;4.06;45.10;99148.56;5052852;28;20036;-68
2022/03/08 05:47:45;;;;;;;7.70;5.10;;;;;;;4.07;44.75;99152.88;5069119;28;20040;-68
2022/03/08 05:50:12;;;;;;;10.03;5.17;;;;;;;4.16;44.62;99156.50;5052474;28;20104;-68
2022/03/08 05:52:38;;;;;;;13.53;5.60;;;;;;;3.80;45.18;99131.53;5019937;28;20040;-68
2022/03/08 05:55:07;;;;;;;12.37;6.03;;;;;;;4.18;44.83;99159.84;5036190;28;20043;-68
2022/03/08 05:57:32;;;;;;;12.60;5.53;;;;;;;3.83;44.86;99152.28;5069275;28;20041;-68
2022/03/08 05:59:58;;;;;;;9.93;6.27;;;;;;;3.82;45.17;99152.41;5069137;28;20083;-68
2022/03/08 06:02:25;;;;;;;11.10;5.63;;;;;;;4.07;45.58;99163.38;5052506;28;20052;-70
2022/03/08 06:04:53;;;;;;;16.97;7.93;;;;;;;3.96;45.57;99160.81;5052868;28;20064;-68
2022/03/08 06:07:21;;;;;;;16.37;7.43;;;;;;;3.99;45.06;99165.81;5069274;28;20452;-69
2022/03/08 06:09:47;;;;;;;10.03;5.87;;;;;;;4.11;44.07;99180.56;5052943;28;20043;-73
2022/03/08 06:12:13;;;;;;;13.63;6.63;;;;;;;4.02;44.04;99186.56;5019898;28;20056;-74
2022/03/08 06:14:39;;;;;;;11.43;6.93;;;;;;;4.00;44.01;99174.53;5019187;28;20089;-73
2022/03/08 06:17:07;;;;;;;10.97;6.27;;;;;;;4.09;44.29;99192.16;5019269;28;20517;-74
2022/03/08 06:19:34;;;;;;;11.50;5.77;;;;;;;4.19;44.09;99185.16;5068963;28;20123;-72
2022/03/08 06:22:00;;;;;;;8.77;6.10;;;;;;;4.18;43.97;99192.19;5052628;28;20555;-74
2022/03/08 06:24:26;;;;;;;8.13;5.43;;;;;;;3.99;43.90;99188.63;5035489;28;20037;-73
2022/03/08 06:26:52;;;;;;;9.90;5.80;;;;;;;4.01;43.33;99184.09;5052467;28;20048;-74
2022/03/08 06:29:18;;;;;;;10.87;6.30;;;;;;;4.17;43.48;99198.44;5019653;28;20500;-75
2022/03/08 06:31:44;;;;;;;10.43;6.30;;;;;;;4.28;43.02;99193.09;5052581;28;20455;-75
2022/03/08 06:34:09;;;;;;;9.33;6.20;;;;;;;4.11;42.48;99169.19;5035848;28;20032;-76
2022/03/08 06:36:36;;;;;;;9.70;6.37;;;;;;;4.28;43.11;99200.16;5036937;28;20052;-76
2022/03/08 06:39:03;;;;;;;13.70;5.93;;;;;;;4.61;41.82;99200.75;5019701;28;20412;-79
2022/03/08 06:41:29;;;;;;;10.13;6.10;;;;;;;4.44;41.64;99190.00;5052233;28;20197;-74
2022/03/08 06:43:55;;;;;;;9.17;5.60;;;;;;;4.46;41.57;99209.94;5019504;28;20051;-74
2022/03/08 06:46:20;;;;;;;7.57;5.23;;;;;;;4.47;41.31;99223.94;5038947;28;20127;-74
2022/03/08 06:48:46;;;;;;;9.47;5.50;;;;;;;4.43;41.27;99227.75;5039730;28;20059;-75
2022/03/08 06:51:13;;;;;;;9.63;5.93;;;;;;;4.27;41.22;99201.13;5023367;28;20381;-74
2022/03/08 06:53:39;;;;;;;10.53;6.97;;;;;;;4.40;41.17;99222.75;5056574;28;20040;-72
2022/03/08 06:56:05;;;;;;;21.63;7.07;;;;;;;4.28;41.76;99226.44;5022952;28;20484;-72
2022/03/08 06:58:31;;;;;;;11.83;6.37;;;;;;;4.25;41.70;99224.91;5039314;28;20046;-72
2022/03/08 07:00:57;;;;;;;15.80;6.73;;;;;;;4.35;41.36;99238.94;5039292;28;20060;-72
2022/03/08 07:03:23;;;;;;;12.10;6.73;;;;;;;4.25;41.41;99239.84;5056170;28;20055;-72
2022/03/08 07:05:49;;;;;;;9.37;6.20;;;;;;;4.16;41.18;99240.59;5039362;28;20390;-72
2022/03/08 07:08:15;;;;;;;11.53;5.93;;;;;;;4.10;41.00;99225.34;5055943;28;20492;-72
2022/03/08 07:10:41;;;;;;;13.40;5.20;;;;;;;4.18;41.79;99239.50;5022507;28;20036;-73
2022/03/08 07:13:07;;;;;;;10.13;6.00;;;;;;;4.28;40.98;99252.72;5039517;28;20048;-75
2022/03/08 07:15:33;;;;;;;9.87;4.87;;;;;;;4.22;41.17;99256.69;5056168;28;20127;-75
2022/03/08 07:17:59;;;;;;;9.67;5.13;;;;;;;4.14;40.79;99256.50;5056055;28;20146;-73
2022/03/08 07:20:25;;;;;;;8.00;5.73;;;;;;;4.06;41.17;99258.91;5039440;28;20453;-73
2022/03/08 07:22:51;;;;;;;8.30;5.53;;;;;;;3.90;40.97;99242.75;5055837;28;20059;-74
2022/03/08 07:25:17;;;;;;;9.20;5.90;;;;;;;3.88;40.97;99265.69;5006234;28;20044;-74
2022/03/08 07:27:43;;;;;;;9.67;5.73;;;;;;;3.82;41.33;99244.34;5022408;28;20051;-69
2022/03/08 07:30:09;;;;;;;14.23;5.70;;;;;;;4.11;41.32;99271.69;5055187;28;20041;-72
2022/03/08 07:32:36;;;;;;;10.50;5.87;;;;;;;4.08;41.25;99264.88;5055246;28;20113;-73
2022/03/08 07:35:03;;;;;;;10.63;6.07;;;;;;;4.09;41.03;99260.47;5038843;28;20046;-71
2022/03/08 07:37:33;;;;;;;12.23;6.27;;;;;;;4.27;41.27;99265.06;5022321;28;20471;-71
2022/03/08 07:39:59;;;;;;;;;;;;;;;4.51;40.75;99278.75;5056055;28;20090;-73
2022/03/08 07:42:27;;;;;;;19.40;6.00;;;;;;;4.20;40.97;99290.16;5022543;28;20319;-73
2022/03/08 07:44:53;;;;;;;13.80;5.57;;;;;;;4.29;40.54;99291.22;5039019;28;20408;-69
2022/03/08 07:47:19;;;;;;;13.57;5.83;;;;;;;4.17;40.58;99292.19;5021998;28;20339;-68
2022/03/08 07:49:45;;;;;;;17.37;5.70;;;;;;;4.10;40.75;99289.25;5022776;28;20472;-69
2022/03/08 07:52:11;;;;;;;10.57;5.47;;;;;;;4.09;40.37;99299.91;5054904;28;20033;-69
2022/03/08 07:54:37;;;;;;;11.90;5.50;;;;;;;4.01;40.49;99286.53;5038195;28;20523;-71
2022/03/08 07:57:03;;;;;;;8.47;4.73;;;;;;;4.00;40.72;99305.91;5071391;28;20060;-70
2022/03/08 07:59:29;;;;;;;15.87;5.87;;;;;;;4.03;40.56;99301.22;5055388;28;20064;-72
2022/03/08 08:01:55;;;;;;;10.50;5.00;;;;;;;4.16;40.50;99308.94;5071515;28;20040;-73
2022/03/08 08:04:21;;;;;;;11.30;5.33;;;;;;;4.15;40.23;99309.91;5054266;28;20037;-70
2022/03/08 08:06:47;;;;;;;9.83;4.90;;;;;;;4.03;40.26;99309.09;5038041;28;20416;-66
2022/03/08 08:09:12;;;;;;;7.93;4.50;;;;;;;4.05;40.25;99320.31;5038117;28;20036;-74
2022/03/08 08:11:39;;;;;;;11.10;5.70;;;;;;;4.13;40.16;99317.91;5071591;28;20082;-68
2022/03/08 08:14:06;;;;;;;6.93;4.50;;;;;;;4.17;39.75;99315.84;5021721;28;20452;-70
2022/03/08 08:16:34;;;;;;;9.93;5.37;;;;;;;4.43;39.55;99320.63;5021499;28;20047;-68
2022/03/08 08:19:01;;;;;;;12.33;5.10;;;;;;;4.41;39.65;99319.09;5071455;28;20048;-73
2022/03/08 08:21:27;;;;;;;8.90;4.47;;;;;;;4.44;38.81;99321.47;5037673;28;20059;-75
2022/03/08 08:23:53;;;;;;;8.17;5.40;;;;;;;4.33;38.98;99297.88;5038064;28;20532;-69
2022/03/08 08:26:19;;;;;;;11.63;5.80;;;;;;;4.54;38.58;99314.47;5021333;28;20070;-68
2022/03/08 08:28:47;;;;;;;17.03;6.40;;;;;;;4.75;39.03;99321.41;5038092;28;20093;-70
2022/03/08 08:31:12;;;;;;;10.50;5.67;;;;;;;4.95;38.65;99335.53;5070971;28;20040;-68
2022/03/08 08:33:41;;;;;;;12.37;4.97;;;;;;;4.82;37.97;99330.47;5054051;28;20044;-68
2022/03/08 08:36:07;;;;;;;12.50;5.53;;;;;;;4.84;38.07;99328.50;5024171;28;20654;-67
2022/03/08 08:38:33;;;;;;;15.07;5.90;;;;;;;4.81;38.00;99338.47;5035630;28;20435;-68
2022/03/08 08:40:58;;;;;;;10.40;5.53;;;;;;;4.84;37.80;99335.59;5036495;28;20520;-68
2022/03/08 08:43:25;;;;;;;12.70;6.40;;;;;;;4.89;38.12;99341.28;5035622;28;20052;-68
2022/03/08 08:45:53;;;;;;;19.83;5.63;;;;;;;4.90;37.50;99342.97;5036286;28;20134;-69
2022/03/08 08:48:21;;;;;;;25.20;5.90;;;;;;;5.16;37.86;99350.31;5036552;28;20051;-67
2022/03/08 08:50:47;;;;;;;9.63;6.23;;;;;;;5.09;37.24;99338.63;5052594;28;20493;-71
2022/03/08 08:53:13;;;;;;;10.40;5.90;;;;;;;4.94;37.31;99347.00;5036310;28;20049;-69
2022/03/08 08:55:39;;;;;;;8.70;5.13;;;;;;;4.88;37.70;99342.25;5036150;28;20044;-69
2022/03/08 08:58:06;;;;;;;9.40;5.90;;;;;;;5.03;37.29;99354.09;5053015;28;20040;-70
2022/03/08 09:00:32;;;;;;;12.67;5.30;;;;;;;4.98;37.44;99343.97;5052513;28;20040;-74
2022/03/08 09:02:58;;;;;;;10.47;5.67;;;;;;;4.82;36.73;99342.78;5020032;28;20078;-70
2022/03/08 09:05:24;;;;;;;10.50;5.50;;;;;;;4.90;36.72;99358.75;5019639;28;20437;-72
2022/03/08 09:07:50;;;;;;;13.90;5.30;;;;;;;4.93;36.78;99353.22;5019341;28;20466;-69
2022/03/08 09:10:16;;;;;;;9.23;5.87;;;;;;;4.94;36.66;99350.47;5052818;28;20519;-71
2022/03/08 09:12:43;;;;;;;10.13;5.63;;;;;;;5.09;36.46;99358.84;5051630;28;20052;-68
2022/03/08 09:15:10;;;;;;;8.43;5.27;;;;;;;5.01;36.42;99350.78;5035807;28;20041;-69
2022/03/08 09:17:39;;;;;;;9.70;5.60;;;;;;;5.17;36.44;99372.19;5052589;28;20472;-70
2022/03/08 09:20:06;;;;;;;13.57;6.03;;;;;;;5.44;36.18;99361.09;5052526;28;20048;-69
2022/03/08 09:22:33;;;;;;;12.33;6.70;;;;;;;5.46;36.08;99364.44;5068356;28;20063;-74
2022/03/08 09:24:59;;;;;;;9.10;5.17;;;;;;;5.48;36.14;99363.34;5035894;28;20442;-68
2022/03/08 09:27:25;;;;;;;8.70;5.20;;;;;;;5.36;35.81;99366.19;5018842;28;20047;-69
2022/03/08 09:29:51;;;;;;;11.07;5.43;;;;;;;5.49;35.91;99380.78;5019040;28;20098;-69
2022/03/08 09:32:19;;;;;;;10.07;5.93;;;;;;;5.49;35.95;99382.63;5051860;28;20048;-69
2022/03/08 09:34:45;;;;;;;13.13;5.90;;;;;;;5.35;35.79;99370.63;5018763;28;20493;-69
2022/03/08 09:37:11;;;;;;;14.43;5.77;;;;;;;5.47;35.93;99379.28;5051692;28;20043;-70
2022/03/08 09:39:37;;;;;;;15.47;5.73;;;;;;;5.50;35.59;99382.47;5035872;28;20253;-68
2022/03/08 09:42:04;;;;;;;21.40;6.00;;;;;;;5.80;35.51;99398.25;5035022;28;20051;-69
2022/03/08 09:44:30;;;;;;;14.73;6.20;;;;;;;6.01;34.69;99388.47;5035402;28;20032;-70
2022/03/08 09:46:56;;;;;;;11.77;6.30;;;;;;;6.10;34.32;99394.75;5034757;28;20044;-69
2022/03/08 09:49:22;;;;;;;13.47;7.73;;;;;;;6.05;34.13;99382.00;5018972;28;20512;-70
2022/03/08 09:51:50;;;;;;;11.43;5.63;;;;;;;6.32;34.47;99390.06;5052068;28;20131;-71
2022/03/08 09:54:17;;;;;;;11.30;5.60;;;;;;;6.23;34.32;99390.06;5018372;28;20040;-72
2022/03/08 09:56:43;;;;;;;11.20;5.80;;;;;;;6.19;33.99;99400.06;5019156;28;20094;-71
2022/03/08 09:59:15;;;;;;;10.57;5.50;;;;;;;6.00;33.93;99397.38;5052740;28;20472;-71
2022/03/08 10:01:43;;;;;;;10.87;6.00;;;;;;;5.78;34.40;99396.72;5051156;28;20047;-70
2022/03/08 10:04:09;;;;;;;9.70;5.40;;;;;;;5.60;35.11;99403.56;5051373;28;20131;-70
2022/03/08 10:06:43;;;;;;;11.93;5.90;;;;;;;5.69;35.18;99400.97;5047883;28;20040;-71
2022/03/08 10:09:14;;;;;;;9.30;5.10;;;;;;;5.67;35.51;99381.88;5065747;28;20040;-71
2022/03/08 10:11:40;;;;;;;7.80;4.35;;;;;;;5.55;34.75;99367.09;5016917;28;20597;-70
2022/03/08 10:14:06;;;;;;;7.63;5.00;;;;;;;5.77;35.08;99401.16;5052156;28;20405;-71
2022/03/08 10:16:53;;;;;;;10.77;5.27;;;;;;;5.68;35.03;99386.16;5019386;28;20049;-71
2022/03/08 10:19:18;;;;;;;9.60;5.40;;;;;;;5.89;34.40;99409.84;5037618;28;20064;-71
2022/03/08 10:21:51;;;;;;;10.70;5.33;;;;;;;5.89;34.70;99408.03;5019001;28;20613;-70
2022/03/08 10:24:25;;;;;;;13.57;6.47;;;;;;;5.68;34.70;99391.41;5036734;28;20033;-70
2022/03/08 10:26:56;;;;;;;11.57;6.70;;;;;;;5.64;34.76;99410.25;5069455;28;20056;-70
2022/03/08 10:29:35;;;;;;;11.48;6.28;;;;;;;5.13;34.69;99340.06;5036490;28;20519;-70
2022/03/08 10:32:09;;;;;;;12.57;6.57;;;;;;;5.39;34.88;99400.16;5069878;28;20055;-70
2022/03/08 10:34:39;;;;;;;17.70;6.37;;;;;;;4.89;35.12;99350.00;5035852;28;20040;-71
2022/03/08 10:37:07;;;;;;;18.57;7.17;;;;;;;4.99;35.19;99400.91;5036313;28;20047;-70
2022/03/08 10:39:34;;;;;;;15.03;6.47;;;;;;;5.12;35.13;99421.75;5052469;28;20282;-70
2022/03/08 10:42:00;;;;;;;15.10;7.13;;;;;;;5.11;35.29;99412.19;5036331;28;20056;-69
2022/03/08 10:44:40;;;;;;;11.50;5.97;;;;;;;5.38;35.20;99430.94;5052402;28;20492;-70
2022/03/08 10:47:14;;;;;;;10.43;5.30;;;;;;;5.21;35.26;99406.03;5036056;28;20040;-70
2022/03/08 10:49:57;;;;;;;12.40;5.57;;;;;;;5.28;34.64;99401.06;5019655;28;20049;-70
2022/03/08 10:52:27;;;;;;;16.17;7.80;;;;;;;5.45;34.91;99442.63;5052840;28;20072;-70
2022/03/08 10:55:20;;;;;;;13.17;6.70;;;;;;;5.40;34.88;99421.09;5052342;28;20139;-70
2022/03/08 10:57:53;;;;;;;9.85;5.30;;;;;;;5.40;34.58;99447.44;5051970;28;20475;-70
2022/03/08 11:00:22;;;;;;;7.80;4.50;;;;;;;5.22;34.65;99451.63;5052220;28;20412;-70
2022/03/08 11:02:59;;;;;;;13.97;4.83;;;;;;;5.29;34.78;99446.69;5035870;28;20515;-70
2022/03/08 11:05:30;;;;;;;17.47;7.80;;;;;;;5.19;35.07;99449.25;5068970;28;20037;-70
2022/03/08 11:07:57;;;;;;;15.02;6.88;;;;;;;5.02;34.81;99421.72;5053450;28;20052;-70
2022/03/08 11:10:25;;;;;;;7.93;4.40;;;;;;;5.29;34.51;99433.50;5020645;28;20430;-71
2022/03/08 11:12:52;;;;;;;7.57;4.60;;;;;;;5.37;34.08;99449.47;5052114;28;20056;-70
2022/03/08 11:15:20;;;;;;;8.70;5.10;;;;;;;5.27;34.18;99414.38;5052829;28;20048;-70
2022/03/08 11:17:47;;;;;;;13.30;5.60;;;;;;;5.57;33.99;99446.81;5019503;28;20040;-70
2022/03/08 11:20:18;;;;;;;8.50;5.17;;;;;;;5.58;34.04;99439.78;5019442;28;20040;-70
2022/03/08 11:22:46;;;;;;;8.57;4.75;;;;;;;5.70;33.39;99452.72;5052754;28;20037;-70
2022/03/08 11:25:16;;;;;;;10.10;5.07;;;;;;;5.76;33.29;99452.19;5035598;28;20052;-70
2022/03/08 11:27:44;;;;;;;7.27;4.57;;;;;;;5.61;33.38;99450.88;5052261;28;20044;-70
2022/03/08 11:30:21;;;;;;;7.10;4.30;;;;;;;5.65;33.45;99452.28;5068792;28;20415;-70
2022/03/08 11:32:53;;;;;;;8.50;5.10;;;;;;;5.58;33.41;99455.56;5055894;28;20044;-70
2022/03/08 11:35:26;;;;;;;9.80;4.77;;;;;;;5.52;33.66;99453.47;5056045;28;20048;-70